createdAt,value
2024-02-01T00:02:27.953Z,86.46
2024-02-01T00:07:30.034Z,86.66
2024-02-01T00:12:31.983Z,87.13
2024-02-01T00:17:33.963Z,87.45
2024-02-01T00:22:36.113Z,87.62
2024-02-01T00:27:38.020Z,87.96
2024-02-01T00:32:40.040Z,87.74
2024-02-01T00:37:42.540Z,87.87
2024-02-01T00:42:44.496Z,87.68
2024-02-01T00:47:49.647Z,87.77
2024-02-01T00:52:51.931Z,87.83
2024-02-01T00:57:54.519Z,87.72
2024-02-01T01:02:56.468Z,87.85
2024-02-01T01:07:58.814Z,87.78
2024-02-01T01:13:00.714Z,87.89
2024-02-01T01:18:03.413Z,87.82
2024-02-01T01:23:07.382Z,87.91
2024-02-01T01:28:09.789Z,87.81
2024-02-01T01:33:11.698Z,88.07
2024-02-01T01:38:13.794Z,88.14
2024-02-01T01:43:15.696Z,88.18
2024-02-01T01:48:17.757Z,88.01
2024-02-01T01:53:19.813Z,88.38
2024-02-01T01:58:22.170Z,88.40
2024-02-01T02:03:28.683Z,88.57
2024-02-01T02:08:31.117Z,88.34
2024-02-01T02:13:33.061Z,88.53
2024-02-01T02:18:35.038Z,88.79
2024-02-01T02:23:37.618Z,88.93
2024-02-01T02:28:40.265Z,88.83
2024-02-01T02:33:42.843Z,88.99
2024-02-01T02:38:44.829Z,88.91
2024-02-01T02:43:46.889Z,88.96
2024-02-01T02:48:48.941Z,88.79
2024-02-01T02:53:51.011Z,88.79
2024-02-01T02:58:53.436Z,88.82
2024-02-01T03:03:55.451Z,88.83
2024-02-01T03:08:57.789Z,89.03
2024-02-01T03:14:00.079Z,88.89
2024-02-01T03:19:02.202Z,88.99
2024-02-01T03:24:05.326Z,89.06
2024-02-01T03:29:07.531Z,89.13
2024-02-01T03:34:12.526Z,88.76
2024-02-01T03:39:23.994Z,88.87
2024-02-01T03:44:26.638Z,88.84
2024-02-01T03:49:29.136Z,88.90
2024-02-01T03:54:32.667Z,88.96
2024-02-01T03:59:35.390Z,88.76
2024-02-01T04:09:40.414Z,89.00
2024-02-01T04:14:42.375Z,88.95
2024-02-01T04:19:44.807Z,89.02
2024-02-01T04:24:46.735Z,88.86
2024-02-01T04:29:48.610Z,89.04
2024-02-01T04:34:50.637Z,88.88
2024-02-01T04:39:52.851Z,89.00
2024-02-01T04:44:59.733Z,88.91
2024-02-01T04:50:03.344Z,88.88
2024-02-01T04:55:08.211Z,88.70
2024-02-01T05:00:15.910Z,88.97
2024-02-01T05:05:18.958Z,88.85
2024-02-01T05:10:21.036Z,89.27
2024-02-01T05:15:23.139Z,89.20
2024-02-01T05:20:26.162Z,89.21
2024-02-01T05:25:28.913Z,88.95
2024-02-01T05:30:31.310Z,89.27
2024-02-01T05:35:35.521Z,88.96
2024-02-01T05:40:40.963Z,88.89
2024-02-01T05:45:42.813Z,88.96
2024-02-01T05:50:44.711Z,88.90
2024-02-01T05:55:53.911Z,89.06
2024-02-01T06:00:56.196Z,89.12
2024-02-01T06:05:58.209Z,89.21
2024-02-01T06:11:00.093Z,89.39
2024-02-01T06:16:02.083Z,89.32
2024-02-01T06:21:04.034Z,89.39
2024-02-01T06:26:06.453Z,89.47
2024-02-01T06:31:14.950Z,89.20
2024-02-01T06:36:16.965Z,89.23
2024-02-01T06:41:29.115Z,89.32
2024-02-01T06:46:54.237Z,89.15
2024-02-01T06:52:04.150Z,89.10
2024-02-01T06:57:14.827Z,89.01
2024-02-01T07:02:36.194Z,89.07
2024-02-01T07:07:48.051Z,88.81
2024-02-01T07:13:08.995Z,88.80
2024-02-01T07:18:17.131Z,88.70
2024-02-01T07:23:23.163Z,88.68
2024-02-01T07:28:47.943Z,88.45
2024-02-01T07:34:08.961Z,88.49
2024-02-01T07:39:29.675Z,88.30
2024-02-01T07:44:50.336Z,88.11
2024-02-01T07:50:11.097Z,88.03
2024-02-01T07:55:31.699Z,87.90
2024-02-01T08:00:35.545Z,87.76
2024-02-01T08:05:57.543Z,87.58
2024-02-01T08:10:59.675Z,87.53
2024-02-01T08:16:04.629Z,87.18
2024-02-01T08:21:15.463Z,87.46
2024-02-01T08:26:17.679Z,87.41
2024-02-01T08:31:19.762Z,86.95
2024-02-01T08:36:21.852Z,86.75
2024-02-01T08:41:23.852Z,86.96
2024-02-01T08:46:25.729Z,86.81
2024-02-01T08:51:27.804Z,86.37
2024-02-01T08:56:38.388Z,86.28
2024-02-01T09:01:40.526Z,86.18
2024-02-01T09:06:42.558Z,86.06
2024-02-01T09:11:44.884Z,85.92
2024-02-01T09:16:47.177Z,86.00
2024-02-01T09:21:49.056Z,85.44
2024-02-01T09:26:51.071Z,85.72
2024-02-01T09:31:57.448Z,85.86
2024-02-01T09:36:59.567Z,85.54
2024-02-01T09:42:13.235Z,85.72
2024-02-01T09:47:16.059Z,85.96
2024-02-01T09:52:18.708Z,85.82
2024-02-01T09:57:20.783Z,86.10
2024-02-01T10:02:23.860Z,86.15
2024-02-01T10:07:25.854Z,86.29
2024-02-01T10:12:27.958Z,86.31
2024-02-01T10:17:31.588Z,86.57
2024-02-01T10:22:34.061Z,86.79
2024-02-01T10:27:42.297Z,86.88
2024-02-01T10:32:47.716Z,87.00
2024-02-01T10:37:53.194Z,87.24
2024-02-01T10:43:00.943Z,87.49
2024-02-01T10:48:09.592Z,87.16
2024-02-01T10:53:16.808Z,87.33
2024-02-01T10:58:20.748Z,87.50
2024-02-01T11:03:28.842Z,87.65
2024-02-01T11:08:34.375Z,87.59
2024-02-01T11:13:36.212Z,88.09
2024-02-01T11:18:48.893Z,87.89
2024-02-01T11:23:51.050Z,88.16
2024-02-01T11:28:54.376Z,88.03
2024-02-01T11:33:56.901Z,88.20
2024-02-01T11:38:58.895Z,88.47
2024-02-01T11:44:01.128Z,88.42
2024-02-01T11:49:03.214Z,88.33
2024-02-01T11:54:05.770Z,88.55
2024-02-01T11:59:08.155Z,88.93
2024-02-01T12:04:10.230Z,89.03
2024-02-01T12:09:15.721Z,89.29
2024-02-01T12:14:22.744Z,88.97
2024-02-01T12:19:25.576Z,89.15
2024-02-01T12:24:28.180Z,88.79
2024-02-01T12:29:30.746Z,88.87
2024-02-01T12:34:37.685Z,89.10
2024-02-01T12:39:41.887Z,89.22
2024-02-01T12:44:44.348Z,89.37
2024-02-01T12:49:46.688Z,89.35
2024-02-01T12:54:48.596Z,89.35
2024-02-01T12:59:50.671Z,89.45
2024-02-01T13:04:54.013Z,89.46
2024-02-01T13:09:56.176Z,89.56
2024-02-01T13:15:07.357Z,89.61
2024-02-01T13:20:23.549Z,89.45
2024-02-01T13:25:26.066Z,89.52
2024-02-01T13:30:28.535Z,89.15
2024-02-01T13:35:32.173Z,88.96
2024-02-01T13:40:34.724Z,89.36
2024-02-01T13:45:36.633Z,88.97
2024-02-01T13:50:39.074Z,89.23
2024-02-01T13:55:40.928Z,88.93
2024-02-01T14:00:51.454Z,89.09
2024-02-01T14:06:00.397Z,88.62
2024-02-01T14:11:02.710Z,88.51
2024-02-01T14:16:08.730Z,88.66
2024-02-01T14:21:10.787Z,88.86
2024-02-01T14:26:12.784Z,88.74
2024-02-01T14:31:15.285Z,88.97
2024-02-01T14:36:18.673Z,89.15
2024-02-01T14:41:21.109Z,88.86
2024-02-01T14:46:22.938Z,88.55
2024-02-01T14:51:24.763Z,88.59
2024-02-01T14:56:26.728Z,88.29
2024-02-01T15:01:29.615Z,88.30
2024-02-01T15:06:32.440Z,88.42
2024-02-01T15:11:34.535Z,88.30
2024-02-01T15:16:36.576Z,88.79
2024-02-01T15:21:40.908Z,88.70
2024-02-01T15:26:44.163Z,88.63
2024-02-01T15:31:48.834Z,88.56
2024-02-01T15:36:50.678Z,88.94
2024-02-01T15:41:59.262Z,88.88
2024-02-01T15:47:01.901Z,89.04
2024-02-01T15:52:05.367Z,89.29
2024-02-01T15:57:07.315Z,89.33
2024-02-01T16:02:10.599Z,89.56
2024-02-01T16:07:12.618Z,89.63
2024-02-01T16:12:20.149Z,89.65
2024-02-01T16:17:22.665Z,89.84
2024-02-01T16:22:47.272Z,89.88
2024-02-01T16:28:04.946Z,89.81
2024-02-01T16:33:21.108Z,90.03
2024-02-01T16:38:26.114Z,89.96
2024-02-01T16:43:41.874Z,90.31
2024-02-01T16:48:44.316Z,90.39
2024-02-01T16:53:48.237Z,90.58
2024-02-01T16:58:57.791Z,90.69
2024-02-01T17:04:00.635Z,90.67
2024-02-01T17:09:05.977Z,90.86
2024-02-01T17:14:30.760Z,90.83
2024-02-01T17:19:38.440Z,90.84
2024-02-01T17:24:40.676Z,90.95
2024-02-01T17:29:45.123Z,91.06
2024-02-01T17:34:47.357Z,90.87
2024-02-01T17:39:49.717Z,90.89
2024-02-01T17:44:51.804Z,90.74
2024-02-01T17:49:54.804Z,90.57
2024-02-01T17:54:57.738Z,90.73
2024-02-01T18:00:00.011Z,90.38
2024-02-01T18:05:02.059Z,90.57
2024-02-01T18:10:09.674Z,90.45
2024-02-01T18:15:37.222Z,90.47
2024-02-01T18:20:39.654Z,89.99
2024-02-01T18:25:42.371Z,90.11
2024-02-01T18:30:44.723Z,89.77
2024-02-01T18:35:57.173Z,89.82
2024-02-01T18:40:59.694Z,89.40
2024-02-01T18:46:03.406Z,89.49
2024-02-01T18:51:07.644Z,89.31
2024-02-01T18:56:29.347Z,89.15
2024-02-01T19:01:36.262Z,89.20
2024-02-01T19:06:41.809Z,88.94
2024-02-01T19:11:46.532Z,88.99
2024-02-01T19:16:50.674Z,88.86
2024-02-01T19:21:53.062Z,88.75
2024-02-01T19:26:57.579Z,88.68
2024-02-01T19:32:00.463Z,88.38
2024-02-01T19:37:02.388Z,88.33
2024-02-01T19:42:05.492Z,88.25
2024-02-01T19:47:07.561Z,88.13
2024-02-01T19:52:09.546Z,87.89
2024-02-01T19:57:11.445Z,87.83
2024-02-01T20:02:14.336Z,87.65
2024-02-01T20:07:16.703Z,87.63
2024-02-01T20:12:18.779Z,87.63
2024-02-01T20:17:21.136Z,87.52
2024-02-01T20:22:23.475Z,87.45
2024-02-01T20:27:25.516Z,87.31
2024-02-01T20:32:30.528Z,87.27
2024-02-01T20:37:33.952Z,87.32
2024-02-01T20:42:35.834Z,87.16
2024-02-01T20:47:41.085Z,86.97
2024-02-01T20:52:43.366Z,87.12
2024-02-01T20:57:48.630Z,87.06
2024-02-01T21:02:53.734Z,87.06
2024-02-01T21:07:56.170Z,87.03
2024-02-01T21:13:15.031Z,86.96
2024-02-01T21:18:20.654Z,86.76
2024-02-01T21:23:27.036Z,87.06
2024-02-01T21:28:29.207Z,87.05
2024-02-01T21:33:31.251Z,86.89
2024-02-01T21:38:33.912Z,86.73
2024-02-01T21:43:37.472Z,86.80
2024-02-01T21:48:40.729Z,86.59
2024-02-01T21:53:44.277Z,86.35
2024-02-01T21:58:47.193Z,86.27
2024-02-01T22:03:49.517Z,86.18
2024-02-01T22:08:55.484Z,86.24
2024-02-01T22:13:57.373Z,86.24
2024-02-01T22:18:59.376Z,86.02
2024-02-01T22:24:01.477Z,85.90
2024-02-01T22:29:03.785Z,85.88
2024-02-01T22:34:05.931Z,85.57
2024-02-01T22:39:17.262Z,85.40
2024-02-01T22:44:20.554Z,85.30
2024-02-01T22:49:22.586Z,85.27
2024-02-01T22:54:25.547Z,85.17
2024-02-01T22:59:28.917Z,85.02
2024-02-01T23:04:30.781Z,84.91
2024-02-01T23:09:33.109Z,84.98
2024-02-01T23:14:35.342Z,84.67
2024-02-01T23:19:37.599Z,84.50
2024-02-01T23:24:42.009Z,84.18
2024-02-01T23:29:43.954Z,84.26
2024-02-01T23:34:46.276Z,84.11
2024-02-01T23:39:48.619Z,83.91
2024-02-01T23:44:50.554Z,83.64
2024-02-01T23:49:52.586Z,83.44
2024-02-01T23:54:56.646Z,83.38
2024-02-01T23:59:58.648Z,83.21
